createdAt,value
2018-03-29T00:01:32.752Z,79.90
2018-03-29T00:04:00.248Z,80.50
2018-03-29T00:06:27.738Z,80.10
2018-03-29T00:08:55.351Z,80.30
2018-03-29T00:11:22.830Z,80.50
2018-03-29T00:13:50.395Z,80.20
2018-03-29T00:16:17.916Z,80.30
2018-03-29T00:18:45.525Z,80.10
2018-03-29T00:21:13.248Z,79.30
2018-03-29T00:23:40.875Z,79.50
2018-03-29T00:26:09.155Z,79.20
2018-03-29T00:28:36.759Z,79.20
2018-03-29T00:31:04.296Z,78.70
2018-03-29T00:33:31.880Z,78.70
2018-03-29T00:35:59.463Z,78.70
2018-03-29T00:38:27.072Z,78.80
2018-03-29T00:40:54.613Z,79.40
2018-03-29T00:43:22.156Z,79.30
2018-03-29T00:45:51.025Z,79.40
2018-03-29T00:48:18.571Z,79.50
2018-03-29T00:50:46.316Z,79.60
2018-03-29T00:53:25.628Z,80.00
2018-03-29T00:55:53.184Z,80.60
2018-03-29T00:58:21.486Z,81.00
2018-03-29T01:00:49.008Z,81.00
2018-03-29T01:03:16.566Z,81.00
2018-03-29T01:05:44.115Z,81.10
2018-03-29T01:08:11.724Z,81.40
2018-03-29T01:10:39.262Z,81.70
2018-03-29T01:13:06.805Z,82.20
2018-03-29T01:15:35.110Z,83.30
2018-03-29T01:18:02.708Z,83.20
2018-03-29T01:20:30.305Z,83.30
2018-03-29T01:22:58.161Z,83.90
2018-03-29T01:25:26.026Z,84.90
2018-03-29T01:27:54.837Z,83.90
2018-03-29T01:30:23.260Z,82.90
2018-03-29T01:32:51.852Z,82.80
2018-03-29T01:35:19.675Z,82.80
2018-03-29T01:37:47.273Z,82.70
2018-03-29T01:40:14.897Z,81.70
2018-03-29T01:42:42.429Z,81.60
2018-03-29T01:45:10.078Z,80.90
2018-03-29T01:47:37.711Z,80.80
2018-03-29T01:50:05.392Z,81.40
2018-03-29T01:52:32.957Z,82.00
2018-03-29T01:55:00.483Z,81.40
2018-03-29T01:57:28.284Z,81.60
2018-03-29T01:59:55.971Z,81.60
2018-03-29T02:02:23.537Z,81.70
2018-03-29T02:04:51.164Z,82.20
2018-03-29T02:07:19.491Z,81.80
2018-03-29T02:09:47.126Z,81.70
2018-03-29T02:12:14.674Z,81.80
2018-03-29T02:14:42.213Z,81.90
2018-03-29T02:17:09.984Z,82.80
2018-03-29T02:19:37.676Z,82.90
2018-03-29T02:22:05.333Z,82.70
2018-03-29T02:24:33.331Z,82.70
2018-03-29T02:27:01.063Z,82.30
2018-03-29T02:29:29.462Z,82.90
2018-03-29T02:31:57.001Z,82.90
2018-03-29T02:34:24.665Z,82.50
2018-03-29T02:36:53.044Z,82.60
2018-03-29T02:39:21.361Z,82.90
2018-03-29T02:41:48.943Z,82.90
2018-03-29T02:44:16.440Z,82.10
2018-03-29T02:46:44.204Z,82.60
2018-03-29T02:49:12.542Z,82.40
2018-03-29T02:51:41.138Z,82.20
2018-03-29T02:54:08.768Z,82.60
2018-03-29T02:56:36.357Z,82.80
2018-03-29T02:59:03.942Z,82.20
2018-03-29T03:01:31.522Z,83.10
2018-03-29T03:03:59.144Z,82.80
2018-03-29T03:06:26.749Z,83.30
2018-03-29T03:08:54.419Z,82.20
2018-03-29T03:11:22.735Z,82.50
2018-03-29T03:13:50.332Z,83.30
2018-03-29T03:16:18.658Z,83.70
2018-03-29T03:18:47.633Z,83.60
2018-03-29T03:21:15.175Z,83.80
2018-03-29T03:23:42.731Z,83.10
2018-03-29T03:26:11.140Z,83.00
2018-03-29T03:28:38.728Z,82.90
2018-03-29T03:31:06.533Z,83.20
2018-03-29T03:33:42.786Z,83.00
2018-03-29T03:36:10.498Z,83.10
2018-03-29T03:38:38.243Z,84.20
2018-03-29T03:41:06.110Z,86.40
2018-03-29T03:43:33.592Z,85.30
2018-03-29T03:46:01.276Z,83.50
2018-03-29T03:48:31.529Z,84.10
2018-03-29T03:50:59.149Z,84.40
2018-03-29T03:53:27.693Z,83.60
2018-03-29T03:55:55.323Z,83.80
2018-03-29T03:58:22.877Z,84.60
2018-03-29T04:00:50.413Z,84.40
2018-03-29T04:03:17.969Z,83.80
2018-03-29T04:05:45.627Z,83.20
2018-03-29T04:08:13.154Z,83.60
2018-03-29T04:10:40.695Z,83.20
2018-03-29T04:13:09.012Z,83.90
2018-03-29T04:15:36.581Z,83.90
2018-03-29T04:18:04.206Z,84.20
2018-03-29T04:20:31.778Z,84.00
2018-03-29T04:22:59.360Z,83.50
2018-03-29T04:25:26.925Z,83.70
2018-03-29T04:27:55.294Z,83.60
2018-03-29T04:30:22.944Z,83.50
2018-03-29T04:32:50.711Z,83.60
2018-03-29T04:35:19.369Z,83.70
2018-03-29T04:37:47.108Z,83.50
2018-03-29T04:40:16.937Z,84.60
2018-03-29T04:42:44.558Z,83.60
2018-03-29T04:45:15.351Z,83.90
2018-03-29T04:47:43.722Z,83.80
2018-03-29T04:50:11.543Z,84.10
2018-03-29T04:52:39.566Z,84.00
2018-03-29T04:55:07.611Z,84.00
2018-03-29T04:57:36.530Z,84.20
2018-03-29T05:02:42.204Z,85.00
2018-03-29T05:05:12.544Z,83.80
2018-03-29T05:07:42.678Z,84.90
2018-03-29T05:10:15.934Z,85.60
2018-03-29T05:12:45.028Z,84.80
2018-03-29T05:15:13.344Z,83.80
2018-03-29T05:17:44.615Z,84.00
2018-03-29T05:20:18.972Z,84.00
2018-03-29T05:22:47.657Z,83.80
2018-03-29T05:25:15.983Z,83.90
2018-03-29T05:27:51.683Z,84.30
2018-03-29T05:30:19.999Z,83.30
2018-03-29T05:37:20.315Z,82.90
2018-03-29T05:40:19.313Z,82.80
2018-03-29T05:42:51.378Z,82.30
2018-03-29T05:48:16.171Z,83.80
2018-03-29T05:50:49.573Z,82.20
2018-03-29T05:53:17.716Z,82.20
2018-03-29T05:55:47.030Z,82.40
2018-03-29T05:58:18.183Z,82.50
2018-03-29T06:00:46.894Z,81.70
2018-03-29T06:03:15.152Z,81.70
2018-03-29T06:05:45.856Z,82.00
2018-03-29T06:08:15.652Z,82.10
2018-03-29T06:10:45.394Z,87.10
2018-03-29T06:13:16.300Z,86.40
2018-03-29T06:15:45.583Z,86.30
2018-03-29T06:18:13.601Z,86.10
2018-03-29T06:20:43.832Z,79.60
2018-03-29T06:23:12.760Z,79.70
2018-03-29T06:25:46.747Z,79.60
2018-03-29T06:28:18.671Z,79.60
2018-03-29T06:30:46.666Z,77.60
2018-03-29T06:33:15.345Z,77.70
2018-03-29T06:35:43.853Z,78.30
2018-03-29T06:38:14.880Z,78.30
2018-03-29T06:40:44.297Z,78.10
2018-03-29T06:43:14.928Z,76.20
2018-03-29T06:45:51.730Z,76.10
2018-03-29T06:48:34.726Z,76.40
2018-03-29T07:02:27.811Z,77.60
2018-03-29T07:05:00.670Z,76.30
2018-03-29T07:07:30.307Z,77.30
2018-03-29T07:09:59.783Z,77.00
2018-03-29T07:12:30.797Z,77.00
2018-03-29T07:15:06.547Z,76.30
2018-03-29T07:17:46.085Z,76.60
2018-03-29T07:20:15.087Z,76.50
2018-03-29T07:22:43.766Z,76.80
2018-03-29T07:25:11.625Z,76.50
2018-03-29T07:27:39.466Z,76.60
2018-03-29T07:30:08.162Z,76.20
2018-03-29T07:32:36.713Z,75.80
2018-03-29T07:35:04.709Z,75.80
2018-03-29T07:37:33.053Z,75.70
2018-03-29T07:40:00.684Z,75.60
2018-03-29T07:42:28.346Z,75.70
2018-03-29T07:44:55.963Z,76.00
2018-03-29T07:47:24.808Z,77.00
2018-03-29T07:49:52.464Z,76.10
2018-03-29T07:52:20.252Z,76.80
2018-03-29T07:54:47.793Z,76.00
2018-03-29T07:57:15.304Z,75.60
2018-03-29T07:59:43.613Z,75.10
2018-03-29T08:02:11.190Z,75.00
2018-03-29T08:04:38.837Z,74.60
2018-03-29T08:07:07.105Z,74.70
2018-03-29T08:09:34.628Z,73.90
2018-03-29T08:12:02.977Z,74.30
2018-03-29T08:14:31.278Z,75.70
2018-03-29T08:16:59.309Z,75.60
2018-03-29T08:19:26.888Z,76.20
2018-03-29T08:21:54.818Z,76.30
2018-03-29T08:24:24.017Z,75.40
2018-03-29T08:26:52.224Z,75.90
2018-03-29T08:29:20.033Z,76.10
2018-03-29T08:31:48.361Z,75.80
2018-03-29T08:34:25.081Z,75.80
2018-03-29T08:36:52.778Z,76.70
2018-03-29T08:39:20.541Z,77.60
2018-03-29T08:41:52.084Z,76.60
2018-03-29T08:44:20.036Z,76.10
2018-03-29T08:46:48.890Z,76.10
2018-03-29T08:49:16.813Z,75.90
2018-03-29T08:51:45.004Z,75.80
2018-03-29T08:54:14.866Z,76.20
2018-03-29T08:56:44.472Z,75.80
2018-03-29T08:59:16.923Z,75.30
2018-03-29T09:01:44.950Z,75.00
2018-03-29T09:04:12.955Z,75.00
2018-03-29T09:06:45.908Z,74.80
2018-03-29T09:09:13.949Z,74.40
2018-03-29T09:11:42.769Z,74.30
2018-03-29T09:14:10.522Z,74.20
2018-03-29T09:16:40.515Z,73.80
2018-03-29T09:19:10.570Z,71.90
2018-03-29T09:21:38.329Z,71.80
2018-03-29T09:24:17.768Z,72.80
2018-03-29T09:26:46.225Z,72.30
2018-03-29T09:29:14.906Z,71.40
2018-03-29T09:31:49.602Z,71.20
2018-03-29T09:34:17.700Z,71.10
2018-03-29T09:36:50.176Z,70.40
2018-03-29T09:39:18.382Z,70.40
2018-03-29T09:41:47.993Z,70.60
2018-03-29T09:44:15.800Z,70.30
2018-03-29T09:46:43.701Z,69.50
2018-03-29T09:49:11.545Z,69.40
2018-03-29T09:51:39.382Z,68.70
2018-03-29T09:54:07.274Z,69.30
2018-03-29T09:56:35.129Z,68.70
2018-03-29T09:59:04.080Z,68.70
2018-03-29T10:01:34.875Z,68.80
2018-03-29T10:04:09.562Z,69.60
2018-03-29T10:06:52.082Z,69.40
2018-03-29T10:09:20.900Z,67.30
2018-03-29T10:11:48.706Z,66.80
2018-03-29T10:14:16.395Z,67.10
2018-03-29T10:16:44.098Z,66.50
2018-03-29T10:19:12.786Z,64.80
2018-03-29T10:21:41.298Z,65.00
2018-03-29T10:24:10.129Z,65.00
2018-03-29T10:26:37.945Z,63.50
2018-03-29T10:29:05.521Z,64.90
2018-03-29T10:31:33.577Z,63.90
2018-03-29T10:34:01.095Z,63.70
2018-03-29T10:36:28.985Z,62.70
2018-03-29T10:38:56.688Z,63.30
2018-03-29T10:41:24.229Z,61.50
2018-03-29T10:43:52.694Z,60.50
2018-03-29T10:46:22.407Z,57.90
2018-03-29T10:48:53.047Z,58.50
2018-03-29T10:51:21.055Z,55.60
2018-03-29T10:53:50.592Z,56.00
2018-03-29T10:56:19.019Z,54.50
2018-03-29T10:58:47.923Z,53.90
2018-03-29T11:01:17.062Z,51.50
2018-03-29T11:03:47.888Z,52.10
2018-03-29T11:06:17.115Z,52.10
2018-03-29T11:08:45.450Z,53.30
2018-03-29T11:11:13.013Z,53.30
2018-03-29T11:13:42.700Z,52.50
2018-03-29T11:16:12.285Z,54.00
2018-03-29T11:18:43.183Z,52.50
2018-03-29T11:21:14.240Z,51.60
2018-03-29T11:23:43.337Z,51.10
2018-03-29T11:26:11.509Z,51.10
2018-03-29T11:28:40.193Z,50.20
2018-03-29T11:31:08.811Z,50.20
2018-03-29T11:33:38.206Z,50.10
2018-03-29T11:36:06.724Z,49.10
2018-03-29T11:38:34.521Z,51.80
2018-03-29T11:41:09.764Z,51.90
2018-03-29T11:43:51.719Z,51.90
2018-03-29T11:49:11.132Z,47.10
2018-03-29T11:54:48.584Z,46.70
2018-03-29T11:57:27.181Z,45.40
2018-03-29T12:00:06.440Z,45.60
2018-03-29T12:08:19.796Z,45.60
2018-03-29T12:10:53.918Z,43.40
2018-03-29T12:13:23.730Z,43.80
2018-03-29T12:15:58.144Z,43.70
2018-03-29T12:18:26.441Z,43.90
2018-03-29T12:20:54.418Z,43.50
2018-03-29T12:23:23.799Z,43.20
2018-03-29T12:25:52.372Z,43.90
2018-03-29T12:31:07.266Z,42.40
2018-03-29T12:33:35.233Z,42.40
2018-03-29T12:36:08.962Z,43.20
2018-03-29T12:38:37.317Z,42.70
2018-03-29T12:41:09.976Z,40.70
2018-03-29T12:43:38.414Z,43.30
2018-03-29T12:46:13.843Z,43.30
2018-03-29T12:48:41.761Z,41.70
2018-03-29T12:51:17.309Z,40.00
2018-03-29T12:53:46.067Z,40.80
2018-03-29T12:56:25.765Z,40.70
2018-03-29T12:58:53.496Z,40.20
2018-03-29T13:01:22.213Z,42.70
2018-03-29T13:03:50.052Z,42.60
2018-03-29T13:06:18.451Z,43.40
2018-03-29T13:08:46.337Z,43.30
2018-03-29T13:11:15.319Z,42.80
2018-03-29T13:13:42.982Z,44.60
2018-03-29T13:16:11.714Z,44.70
2018-03-29T13:18:54.054Z,44.80
2018-03-29T13:21:22.455Z,44.40
2018-03-29T13:23:50.424Z,44.40
2018-03-29T13:26:18.169Z,44.40
2018-03-29T13:28:48.484Z,45.50
2018-03-29T13:31:17.120Z,46.10
2018-03-29T13:36:49.150Z,46.20
2018-03-29T13:39:17.597Z,46.50
2018-03-29T13:41:45.608Z,46.50
2018-03-29T13:44:16.429Z,44.90
2018-03-29T13:46:44.947Z,44.90
2018-03-29T13:49:16.699Z,43.60
2018-03-29T13:51:44.572Z,44.80
2018-03-29T13:54:12.738Z,46.40
2018-03-29T13:56:45.056Z,45.50
2018-03-29T13:59:13.113Z,46.70
2018-03-29T14:01:41.712Z,44.90
2018-03-29T14:04:16.749Z,45.90
2018-03-29T14:06:49.591Z,45.80
2018-03-29T14:09:19.810Z,45.80
2018-03-29T14:11:47.479Z,46.30
2018-03-29T14:14:15.125Z,47.10
2018-03-29T14:16:43.310Z,48.40
2018-03-29T14:19:22.235Z,46.30
2018-03-29T14:21:55.018Z,46.60
2018-03-29T14:24:23.046Z,46.90
2018-03-29T14:26:59.823Z,48.00
2018-03-29T14:29:37.520Z,47.70
2018-03-29T14:32:05.225Z,49.30
2018-03-29T14:34:33.161Z,48.80
2018-03-29T14:37:01.461Z,49.90
2018-03-29T14:39:30.562Z,50.30
2018-03-29T14:41:58.188Z,50.30
2018-03-29T14:47:18.741Z,51.60
2018-03-29T14:49:47.939Z,54.50
2018-03-29T14:55:14.511Z,57.80
2018-03-29T14:57:42.143Z,58.70
2018-03-29T15:00:09.919Z,60.00
2018-03-29T15:02:37.641Z,60.90
2018-03-29T15:05:05.202Z,60.10
2018-03-29T15:07:44.200Z,59.40
2018-03-29T15:10:30.159Z,60.70
2018-03-29T15:12:58.032Z,60.70
2018-03-29T15:15:25.683Z,60.40
2018-03-29T15:17:55.170Z,59.90
2018-03-29T15:36:01.605Z,58.50
2018-03-29T15:38:29.474Z,58.40
2018-03-29T15:43:42.057Z,58.20
2018-03-29T15:48:53.974Z,56.20
2018-03-29T15:54:00.248Z,57.10
2018-03-29T15:56:28.382Z,56.70
2018-03-29T16:01:30.816Z,57.50
2018-03-29T16:03:58.553Z,57.80
2018-03-29T16:06:27.154Z,59.30
2018-03-29T16:09:04.145Z,59.30
2018-03-29T16:11:32.111Z,59.10
2018-03-29T16:13:59.766Z,59.50
2018-03-29T16:16:27.539Z,59.40
2018-03-29T16:18:55.855Z,59.50
2018-03-29T16:23:58.944Z,59.00
2018-03-29T16:26:26.747Z,59.00
2018-03-29T16:28:54.448Z,59.90
2018-03-29T16:31:22.095Z,59.40
2018-03-29T16:33:49.946Z,62.50
2018-03-29T16:36:17.758Z,60.40
2018-03-29T16:38:45.356Z,60.00
2018-03-29T16:41:12.876Z,61.20
2018-03-29T16:43:40.626Z,60.80
2018-03-29T16:46:08.643Z,61.40
2018-03-29T16:48:36.305Z,63.10
2018-03-29T16:51:04.001Z,63.70
2018-03-29T16:53:32.584Z,65.30
2018-03-29T16:56:01.462Z,64.30
2018-03-29T16:58:30.180Z,64.00
2018-03-29T17:00:58.046Z,64.00
2018-03-29T17:03:25.911Z,64.90
2018-03-29T17:05:53.985Z,64.70
2018-03-29T17:08:21.648Z,64.30
2018-03-29T17:10:49.665Z,65.60
2018-03-29T17:13:17.440Z,65.10
2018-03-29T17:15:45.317Z,64.10
2018-03-29T17:18:14.114Z,63.40
2018-03-29T17:20:49.479Z,65.00
2018-03-29T17:23:17.525Z,65.00
2018-03-29T17:25:54.787Z,64.70
2018-03-29T17:28:24.000Z,64.80
2018-03-29T17:30:52.823Z,65.90
2018-03-29T17:33:20.654Z,65.90
2018-03-29T17:35:52.977Z,78.10
2018-03-29T17:38:20.496Z,77.60
2018-03-29T17:40:49.269Z,73.20
2018-03-29T17:43:17.200Z,73.20
2018-03-29T17:45:45.024Z,66.40
2018-03-29T17:48:12.625Z,65.70
2018-03-29T17:50:40.401Z,65.30
2018-03-29T17:53:07.901Z,65.50
2018-03-29T17:55:36.168Z,67.40
2018-03-29T17:58:03.672Z,67.30
2018-03-29T18:00:31.188Z,67.10
2018-03-29T18:02:59.486Z,67.20
2018-03-29T18:05:26.984Z,67.10
2018-03-29T18:07:54.612Z,67.40
2018-03-29T18:10:22.282Z,67.30
2018-03-29T18:12:49.968Z,67.00
2018-03-29T18:15:17.533Z,66.90
2018-03-29T18:17:45.261Z,67.90
2018-03-29T18:20:12.817Z,67.10
2018-03-29T18:22:40.523Z,67.10
2018-03-29T18:25:08.072Z,66.50
2018-03-29T18:27:35.556Z,66.30
2018-03-29T18:30:03.125Z,66.50
2018-03-29T18:32:31.776Z,66.50
2018-03-29T18:34:59.280Z,66.50
2018-03-29T18:37:26.820Z,67.00
2018-03-29T18:39:54.383Z,67.80
2018-03-29T18:42:22.065Z,68.20
2018-03-29T18:44:50.371Z,67.90
2018-03-29T18:47:18.002Z,67.90
2018-03-29T18:49:45.521Z,68.70
2018-03-29T18:52:13.011Z,69.20
2018-03-29T18:54:41.320Z,69.70
2018-03-29T18:57:08.853Z,69.60
2018-03-29T18:59:37.182Z,71.30
2018-03-29T19:02:04.679Z,71.30
2018-03-29T19:04:32.943Z,72.50
2018-03-29T19:07:00.542Z,72.50
2018-03-29T19:09:28.056Z,73.20
2018-03-29T19:11:55.601Z,73.60
2018-03-29T19:14:23.188Z,73.60
2018-03-29T19:16:51.470Z,73.90
2018-03-29T19:19:19.815Z,74.10
2018-03-29T19:21:47.364Z,74.00
2018-03-29T19:24:14.963Z,74.40
2018-03-29T19:26:43.381Z,74.30
2018-03-29T19:29:10.934Z,74.10
2018-03-29T19:31:38.483Z,74.30
2018-03-29T19:34:07.462Z,74.40
2018-03-29T19:36:35.735Z,75.00
2018-03-29T19:39:04.142Z,74.80
2018-03-29T19:41:31.735Z,74.70
2018-03-29T19:43:59.362Z,74.80
2018-03-29T19:46:26.851Z,74.80
2018-03-29T19:48:54.615Z,75.20
2018-03-29T19:51:22.185Z,75.40
2018-03-29T19:53:49.679Z,75.10
2018-03-29T19:56:18.012Z,75.00
2018-03-29T19:58:45.536Z,74.80
2018-03-29T20:01:13.099Z,74.80
2018-03-29T20:03:40.657Z,74.90
2018-03-29T20:06:08.310Z,74.50
2018-03-29T20:08:35.816Z,75.00
2018-03-29T20:11:04.182Z,75.60
2018-03-29T20:13:31.679Z,75.60
2018-03-29T20:15:59.969Z,76.10
2018-03-29T20:18:28.307Z,76.20
2018-03-29T20:20:55.798Z,76.20
2018-03-29T20:23:24.073Z,76.50
2018-03-29T20:25:52.314Z,76.40
2018-03-29T20:28:19.852Z,76.30
2018-03-29T20:30:47.363Z,77.10
2018-03-29T20:33:14.874Z,76.60
2018-03-29T20:35:42.363Z,76.80
2018-03-29T20:38:09.874Z,76.20
2018-03-29T20:40:37.368Z,76.40
2018-03-29T20:43:04.854Z,76.10
2018-03-29T20:45:33.142Z,77.20
2018-03-29T20:48:00.654Z,77.20
2018-03-29T20:50:28.296Z,77.20
2018-03-29T20:52:55.810Z,77.70
2018-03-29T20:55:24.084Z,78.30
2018-03-29T20:57:51.783Z,78.20
2018-03-29T21:00:19.311Z,78.00
2018-03-29T21:02:47.584Z,77.80
2018-03-29T21:05:15.852Z,78.80
2018-03-29T21:07:44.146Z,78.70
2018-03-29T21:10:11.639Z,78.60
2018-03-29T21:12:39.188Z,78.30
2018-03-29T21:15:07.499Z,79.10
2018-03-29T21:17:35.012Z,79.00
2018-03-29T21:20:02.513Z,79.00
2018-03-29T21:22:30.132Z,79.20
2018-03-29T21:24:57.632Z,79.50
2018-03-29T21:27:25.158Z,78.90
2018-03-29T21:29:52.680Z,78.10
2018-03-29T21:32:20.954Z,77.80
2018-03-29T21:34:49.219Z,78.20
2018-03-29T21:37:16.728Z,78.20
2018-03-29T21:39:44.252Z,78.20
2018-03-29T21:42:12.499Z,80.10
2018-03-29T21:44:40.019Z,80.00
2018-03-29T21:47:07.515Z,79.50
2018-03-29T21:49:35.027Z,79.90
2018-03-29T21:52:02.533Z,79.70
2018-03-29T21:54:30.022Z,79.40
2018-03-29T21:56:58.298Z,79.60
2018-03-29T21:59:26.565Z,79.60
2018-03-29T22:01:54.876Z,79.60
2018-03-29T22:04:22.375Z,79.60
2018-03-29T22:06:49.897Z,79.60
2018-03-29T22:09:17.385Z,79.90
2018-03-29T22:11:44.899Z,79.80
2018-03-29T22:14:12.383Z,79.60
2018-03-29T22:16:39.920Z,79.60
2018-03-29T22:19:07.537Z,79.80
2018-03-29T22:21:35.075Z,80.90
2018-03-29T22:24:02.593Z,80.10
2018-03-29T22:26:30.101Z,79.70
2018-03-29T22:28:57.653Z,80.20
2018-03-29T22:31:25.145Z,81.00
2018-03-29T22:33:52.686Z,81.00
2018-03-29T22:36:20.208Z,80.70
2018-03-29T22:38:47.735Z,80.80
2018-03-29T22:41:15.218Z,80.90
2018-03-29T22:43:42.707Z,80.60
2018-03-29T22:46:10.258Z,80.90
2018-03-29T22:48:38.525Z,81.10
2018-03-29T22:51:06.033Z,81.10
2018-03-29T22:53:34.274Z,81.90
2018-03-29T22:56:01.779Z,81.90
2018-03-29T22:58:29.288Z,81.50
2018-03-29T23:00:56.786Z,81.90
2018-03-29T23:03:25.041Z,81.90
2018-03-29T23:05:52.556Z,81.90
2018-03-29T23:08:20.045Z,82.00
2018-03-29T23:10:47.539Z,81.80
2018-03-29T23:13:15.841Z,81.90
2018-03-29T23:15:43.335Z,81.80
2018-03-29T23:18:10.852Z,83.40
2018-03-29T23:20:38.353Z,81.80
2018-03-29T23:23:05.876Z,81.90
2018-03-29T23:25:33.384Z,81.90
2018-03-29T23:28:00.950Z,82.60
2018-03-29T23:30:28.454Z,82.60
2018-03-29T23:32:55.955Z,82.30
2018-03-29T23:35:23.463Z,83.70
2018-03-29T23:37:50.960Z,82.90
2018-03-29T23:40:18.489Z,83.00
2018-03-29T23:42:46.019Z,82.90
2018-03-29T23:45:14.308Z,82.60
2018-03-29T23:47:45.200Z,82.50
2018-03-29T23:50:12.777Z,82.00
2018-03-29T23:52:41.063Z,82.00
2018-03-29T23:55:09.340Z,81.90
2018-03-29T23:57:37.612Z,82.00
